Gaschem Jade — ELSU9 — position and weather

sailwx.info

Track history (hours):
 
Tides and Currents Weather Stations Pressure Air Temp Water Temp Dewpoint Dewpoint Depression Visibility Wind Speed Wind Dir Waves Ship Positions

Gaschem Jade

Last reported at 2018-Mar-27 08:36 UTC. Time now 2018-May-21 05:25 UTC.
Position N 01°08' E 103°34'.
Warning: this ship's position is 54 days out of date.

Length 113.2 m; beam 15.9 m; draft 6.1 m.

Type: Ship. MMSI: 636090168.

Date/timePositionNaut miles runAvg speedWind from/ knotsBaromVisibWave heightAir tempDewpointWater temp
2018-Mar-27 08:36N 01°08' E 103°34'111.7
2018-Mar-27 08:29N 01°09' E 103°34'511.3
2018-Mar-27 08:00N 01°12' E 103°39'4 8.4
2018-Mar-27 07:30N 01°15' E 103°41'1 1.1
2018-Mar-27 06:57N 01°16' E 103°41'0 0.1
2018-Mar-27 06:27N 01°16' E 103°41'0 0.1
2018-Mar-27 05:51N 01°16' E 103°41'0 0.0
2018-Mar-26 04:49N 01°16' E 103°41'0 0.4
2018-Mar-26 04:30N 01°16' E 103°41'2 4.2
2018-Mar-26 04:00N 01°14' E 103°42'1 2.2
2018-Mar-26 03:30N 01°13' E 103°41'0 0.0
2018-Mar-26 03:00N 01°13' E 103°41'0 0.0
2018-Mar-26 02:30N 01°13' E 103°41'0 0.0
2018-Mar-26 02:00N 01°13' E 103°41'0 0.0
2018-Mar-26 01:30N 01°13' E 103°41'0 0.0
2018-Mar-26 01:00N 01°13' E 103°41'0 0.0
2018-Mar-26 00:30N 01°13' E 103°41'0 0.0
2018-Mar-26 00:00N 01°13' E 103°41'0 0.1
2018-Mar-25 23:30N 01°13' E 103°41'0 0.1
2018-Mar-25 23:00N 01°13' E 103°41'3 6.5
2018-Mar-25 22:30N 01°10' E 103°42'5 9.4
2018-Mar-25 21:59N 01°10' E 103°47'3 6.4
2018-Mar-25 21:30N 01°11' E 103°50'3 6.2
2018-Mar-25 20:59N 01°13' E 103°53'3 6.0
2018-Mar-25 20:30N 01°14' E 103°56'  
2018-Mar-18 05:12N 01°07' E 103°33'311.3
2018-Mar-18 04:56N 01°10' E 103°34'4 9.5
2018-Mar-18 04:30N 01°11' E 103°38'4 7.5
2018-Mar-18 04:00N 01°11' E 103°42'0 0.4
2018-Mar-18 03:28N 01°11' E 103°42'0 0.0
2018-Mar-18 02:58N 01°11' E 103°42'0 0.0
2018-Mar-18 02:31N 01°11' E 103°42'0 0.0
2018-Mar-18 01:57N 01°11' E 103°42'0 0.0
2018-Mar-18 01:24N 01°11' E 103°42'0 0.0
2018-Mar-18 00:54N 01°11' E 103°42'0 0.1
2018-Mar-18 00:27N 01°11' E 103°42'0 0.0
2018-Mar-17 23:56N 01°11' E 103°42'0 0.0
2018-Mar-17 23:29N 01°11' E 103°42'0 0.0
2018-Mar-17 22:47N 01°11' E 103°42'0 0.0
2018-Mar-17 22:23N 01°11' E 103°42'0 0.0
2018-Mar-17 21:25N 01°11' E 103°42'0 0.0
2018-Mar-17 20:49N 01°11' E 103°42'0 0.0
2018-Mar-17 20:25N 01°11' E 103°42'0 0.0
2018-Mar-17 19:58N 01°11' E 103°42'0 0.0
2018-Mar-17 19:18N 01°11' E 103°42'0 0.0
2018-Mar-17 18:57N 01°11' E 103°42'0 0.0
2018-Mar-17 18:27N 01°11' E 103°42'0 0.0
2018-Mar-17 17:57N 01°11' E 103°42'0 0.0
2018-Mar-17 17:02N 01°11' E 103°42'0 0.0
2018-Mar-17 16:50N 01°11' E 103°42'0 0.0
2018-Mar-17 16:26N 01°11' E 103°42'0 0.0
2018-Mar-17 15:56N 01°11' E 103°42'0 0.0
2018-Mar-17 14:40N 01°11' E 103°42'0 0.3
2018-Mar-17 14:28N 01°11' E 103°42'0 0.0
2018-Mar-17 13:43N 01°11' E 103°42'0 0.0
2018-Mar-17 13:13N 01°11' E 103°42'0 0.0
2018-Mar-17 12:55N 01°11' E 103°42'0 0.0
2018-Mar-17 11:09N 01°11' E 103°42'0 0.0
2018-Mar-17 10:02N 01°11' E 103°42'0 0.1
2018-Mar-17 09:50N 01°11' E 103°42'0 0.0
2018-Mar-17 09:26N 01°11' E 103°42'0 0.0
2018-Mar-17 08:56N 01°11' E 103°42'  
Track history (hours):
 
Tides and Currents Weather Stations Pressure Air Temp Water Temp Dewpoint Dewpoint Depression Visibility Wind Speed Wind Dir Waves Ship Positions

Gaschem Jade

Last reported at 2018-Mar-27 08:36 UTC. Time now 2018-May-21 05:25 UTC.
Position N 01°08' E 103°34'.
Warning: this ship's position is 54 days out of date.

Length 113.2 m; beam 15.9 m; draft 6.1 m.

Type: Ship. MMSI: 636090168.

Date/timePositionNaut miles runAvg speedWind from/ knotsBaromVisibWave heightAir tempDewpointWater temp
2018-Mar-27 08:36N 01°08' E 103°34'111.7
2018-Mar-27 08:29N 01°09' E 103°34'511.3
2018-Mar-27 08:00N 01°12' E 103°39'4 8.4
2018-Mar-27 07:30N 01°15' E 103°41'1 1.1
2018-Mar-27 06:57N 01°16' E 103°41'0 0.1
2018-Mar-27 06:27N 01°16' E 103°41'0 0.1
2018-Mar-27 05:51N 01°16' E 103°41'0 0.0
2018-Mar-26 04:49N 01°16' E 103°41'0 0.4
2018-Mar-26 04:30N 01°16' E 103°41'2 4.2
2018-Mar-26 04:00N 01°14' E 103°42'1 2.2
2018-Mar-26 03:30N 01°13' E 103°41'0 0.0
2018-Mar-26 03:00N 01°13' E 103°41'0 0.0
2018-Mar-26 02:30N 01°13' E 103°41'0 0.0
2018-Mar-26 02:00N 01°13' E 103°41'0 0.0
2018-Mar-26 01:30N 01°13' E 103°41'0 0.0
2018-Mar-26 01:00N 01°13' E 103°41'0 0.0
2018-Mar-26 00:30N 01°13' E 103°41'0 0.0
2018-Mar-26 00:00N 01°13' E 103°41'0 0.1
2018-Mar-25 23:30N 01°13' E 103°41'0 0.1
2018-Mar-25 23:00N 01°13' E 103°41'3 6.5
2018-Mar-25 22:30N 01°10' E 103°42'5 9.4
2018-Mar-25 21:59N 01°10' E 103°47'3 6.4
2018-Mar-25 21:30N 01°11' E 103°50'3 6.2
2018-Mar-25 20:59N 01°13' E 103°53'3 6.0
2018-Mar-25 20:30N 01°14' E 103°56'  
2018-Mar-18 05:12N 01°07' E 103°33'311.3
2018-Mar-18 04:56N 01°10' E 103°34'4 9.5
2018-Mar-18 04:30N 01°11' E 103°38'4 7.5
2018-Mar-18 04:00N 01°11' E 103°42'0 0.4
2018-Mar-18 03:28N 01°11' E 103°42'0 0.0
2018-Mar-18 02:58N 01°11' E 103°42'0 0.0
2018-Mar-18 02:31N 01°11' E 103°42'0 0.0
2018-Mar-18 01:57N 01°11' E 103°42'0 0.0
2018-Mar-18 01:24N 01°11' E 103°42'0 0.0
2018-Mar-18 00:54N 01°11' E 103°42'0 0.1
2018-Mar-18 00:27N 01°11' E 103°42'0 0.0
2018-Mar-17 23:56N 01°11' E 103°42'0 0.0
2018-Mar-17 23:29N 01°11' E 103°42'0 0.0
2018-Mar-17 22:47N 01°11' E 103°42'0 0.0
2018-Mar-17 22:23N 01°11' E 103°42'0 0.0
2018-Mar-17 21:25N 01°11' E 103°42'0 0.0
2018-Mar-17 20:49N 01°11' E 103°42'0 0.0
2018-Mar-17 20:25N 01°11' E 103°42'0 0.0
2018-Mar-17 19:58N 01°11' E 103°42'0 0.0
2018-Mar-17 19:18N 01°11' E 103°42'0 0.0
2018-Mar-17 18:57N 01°11' E 103°42'0 0.0
2018-Mar-17 18:27N 01°11' E 103°42'0 0.0
2018-Mar-17 17:57N 01°11' E 103°42'0 0.0
2018-Mar-17 17:02N 01°11' E 103°42'0 0.0
2018-Mar-17 16:50N 01°11' E 103°42'0 0.0
2018-Mar-17 16:26N 01°11' E 103°42'0 0.0
2018-Mar-17 15:56N 01°11' E 103°42'0 0.0
2018-Mar-17 14:40N 01°11' E 103°42'0 0.3
2018-Mar-17 14:28N 01°11' E 103°42'0 0.0
2018-Mar-17 13:43N 01°11' E 103°42'0 0.0
2018-Mar-17 13:13N 01°11' E 103°42'0 0.0
2018-Mar-17 12:55N 01°11' E 103°42'0 0.0
2018-Mar-17 11:09N 01°11' E 103°42'0 0.0
2018-Mar-17 10:02N 01°11' E 103°42'0 0.1
2018-Mar-17 09:50N 01°11' E 103°42'0 0.0
2018-Mar-17 09:26N 01°11' E 103°42'0 0.0
2018-Mar-17 08:56N 01°11' E 103°42'  

Dump ship's entire track history